createdAt,value
2024-02-12T00:01:05.895Z,3.70
2024-02-12T00:03:43.481Z,3.30
2024-02-12T00:06:18.183Z,3.90
2024-02-12T00:08:47.709Z,3.50
2024-02-12T00:11:16.490Z,3.60
2024-02-12T00:13:44.754Z,3.10
2024-02-12T00:16:13.230Z,3.20
2024-02-12T00:18:42.253Z,3.60
2024-02-12T00:21:10.782Z,3.20
2024-02-12T00:23:39.480Z,3.30
2024-02-12T00:26:07.897Z,3.40
2024-02-12T00:28:36.306Z,3.70
2024-02-12T00:31:06.118Z,3.00
2024-02-12T00:33:34.801Z,3.10
2024-02-12T00:36:03.399Z,3.40
2024-02-12T00:38:32.060Z,3.20
2024-02-12T00:41:01.201Z,3.30
2024-02-12T00:43:29.655Z,4.10
2024-02-12T00:45:59.765Z,3.30
2024-02-12T00:48:28.221Z,3.50
2024-02-12T00:50:56.493Z,3.00
2024-02-12T00:53:25.494Z,2.70
2024-02-12T00:55:53.967Z,3.10
2024-02-12T00:58:23.320Z,2.80
2024-02-12T01:00:51.678Z,3.00
2024-02-12T01:03:20.185Z,3.10
2024-02-12T01:05:49.625Z,6.50
2024-02-12T01:08:18.367Z,6.70
2024-02-12T01:10:48.215Z,7.00
2024-02-12T01:13:16.761Z,6.30
2024-02-12T01:15:50.365Z,6.00
2024-02-12T01:18:19.081Z,4.50
2024-02-12T01:20:47.849Z,3.20
2024-02-12T01:23:17.318Z,3.20
2024-02-12T01:25:49.063Z,3.30
2024-02-12T01:28:19.832Z,3.30
2024-02-12T01:30:51.550Z,4.60
2024-02-12T01:33:22.594Z,5.70
2024-02-12T01:35:54.141Z,6.30
2024-02-12T01:38:22.568Z,6.20
2024-02-12T01:40:50.947Z,4.40
2024-02-12T01:43:33.010Z,3.90
2024-02-12T01:46:06.837Z,3.60
2024-02-12T01:48:37.427Z,3.60
2024-02-12T01:51:08.607Z,3.40
2024-02-12T01:53:43.676Z,3.20
2024-02-12T01:56:15.183Z,5.90
2024-02-12T01:58:45.005Z,5.20
2024-02-12T02:01:15.739Z,5.00
2024-02-12T02:03:46.323Z,4.20
2024-02-12T02:06:16.244Z,4.00
2024-02-12T02:08:46.179Z,7.80
2024-02-12T02:11:16.699Z,8.20
2024-02-12T02:13:45.469Z,7.60
2024-02-12T02:16:17.399Z,6.90
2024-02-12T02:18:51.797Z,7.20
2024-02-12T02:21:23.732Z,8.70
2024-02-12T02:24:04.356Z,7.80
2024-02-12T02:26:36.396Z,8.40
2024-02-12T02:29:04.997Z,7.90
2024-02-12T02:31:35.012Z,5.40
2024-02-12T02:34:04.433Z,4.20
2024-02-12T02:36:35.548Z,3.80
2024-02-12T02:39:05.250Z,6.10
2024-02-12T02:41:45.696Z,6.20
2024-02-12T02:44:19.872Z,7.80
2024-02-12T02:46:53.640Z,7.10
2024-02-12T02:49:26.094Z,8.10
2024-02-12T02:51:54.609Z,9.10
2024-02-12T02:54:34.943Z,9.30
2024-02-12T02:57:09.170Z,7.90
2024-02-12T02:59:38.552Z,9.00
2024-02-12T03:02:14.064Z,8.20
2024-02-12T03:04:45.284Z,8.40
2024-02-12T03:07:16.536Z,8.30
2024-02-12T03:09:45.367Z,7.50
2024-02-12T03:12:17.661Z,7.80
2024-02-12T03:14:56.511Z,7.30
2024-02-12T03:17:25.410Z,8.00
2024-02-12T03:19:54.042Z,7.30
2024-02-12T03:22:22.949Z,7.20
2024-02-12T03:25:02.873Z,6.90
2024-02-12T03:27:34.326Z,6.30
2024-02-12T03:30:08.359Z,6.90
2024-02-12T03:32:38.381Z,6.20
2024-02-12T03:35:08.246Z,5.00
2024-02-12T03:37:43.407Z,6.00
2024-02-12T03:40:14.285Z,5.80
2024-02-12T03:42:43.183Z,6.00
2024-02-12T03:45:15.157Z,6.10
2024-02-12T03:47:45.363Z,6.00
2024-02-12T03:50:38.358Z,6.30
2024-02-12T03:53:27.634Z,6.50
2024-02-12T03:56:15.157Z,6.20
2024-02-12T03:59:02.275Z,7.00
2024-02-12T04:01:31.149Z,6.20
2024-02-12T04:04:00.650Z,6.40
2024-02-12T04:06:35.833Z,6.50
2024-02-12T04:09:04.569Z,6.30
2024-02-12T04:11:33.190Z,6.30
2024-02-12T04:14:14.157Z,5.70
2024-02-12T04:16:52.998Z,5.70
2024-02-12T04:19:32.664Z,5.30
2024-02-12T04:22:16.121Z,5.30
2024-02-12T04:24:55.585Z,5.50
2024-02-12T04:27:24.194Z,5.50
2024-02-12T04:29:52.571Z,4.90
2024-02-12T04:32:22.084Z,5.20
2024-02-12T04:34:50.758Z,5.50
2024-02-12T04:37:19.580Z,5.90
2024-02-12T04:39:49.714Z,5.00
2024-02-12T04:42:22.373Z,5.50
2024-02-12T04:44:51.001Z,6.00
2024-02-12T04:47:19.655Z,5.70
2024-02-12T04:49:52.825Z,6.20
2024-02-12T04:52:21.770Z,5.20
2024-02-12T04:54:54.628Z,8.00
2024-02-12T04:57:26.122Z,8.50
2024-02-12T04:59:54.799Z,8.20
2024-02-12T05:02:26.659Z,8.20
2024-02-12T05:04:59.368Z,7.20
2024-02-12T05:07:28.923Z,7.90
2024-02-12T05:10:04.220Z,7.50
2024-02-12T05:12:36.524Z,7.20
2024-02-12T05:15:10.924Z,8.40
2024-02-12T05:18:16.057Z,7.30
2024-02-12T05:21:03.436Z,6.20
2024-02-12T05:23:32.968Z,5.20
2024-02-12T05:26:01.849Z,5.40
2024-02-12T05:28:30.450Z,5.00
2024-02-12T05:31:00.042Z,4.50
2024-02-12T05:33:28.801Z,4.30
2024-02-12T05:35:57.280Z,4.10
2024-02-12T05:38:27.922Z,4.10
2024-02-12T05:40:59.126Z,4.60
2024-02-12T05:43:48.606Z,4.30
2024-02-12T05:46:17.477Z,4.40
2024-02-12T05:48:48.973Z,4.40
2024-02-12T05:51:21.373Z,4.40
2024-02-12T05:53:58.745Z,5.10
2024-02-12T05:56:40.732Z,5.20
2024-02-12T05:59:11.155Z,5.20
2024-02-12T06:04:09.898Z,5.20
2024-02-12T06:06:42.260Z,5.60
2024-02-12T06:09:14.158Z,5.60
2024-02-12T06:11:42.899Z,11.30
2024-02-12T06:14:14.000Z,7.30
2024-02-12T06:16:42.818Z,5.90
2024-02-12T06:19:11.411Z,5.50
2024-02-12T06:21:43.820Z,6.20
2024-02-12T06:24:12.783Z,5.30
2024-02-12T06:26:41.320Z,8.60
2024-02-12T06:29:10.126Z,9.70
2024-02-12T06:31:46.658Z,10.10
2024-02-12T06:34:15.390Z,9.60
2024-02-12T06:36:44.337Z,10.00
2024-02-12T06:39:18.534Z,10.20
2024-02-12T06:41:51.236Z,9.90
2024-02-12T06:44:24.348Z,10.10
2024-02-12T06:46:56.228Z,9.30
2024-02-12T06:49:25.235Z,11.90
2024-02-12T06:51:54.034Z,11.30
2024-02-12T06:54:35.798Z,28.50
2024-02-12T06:57:04.684Z,54.10
2024-02-12T06:59:33.520Z,53.10
2024-02-12T07:02:02.293Z,42.00
2024-02-12T07:04:52.715Z,35.90
2024-02-12T07:07:21.042Z,32.80
2024-02-12T07:09:49.730Z,29.80
2024-02-12T07:12:23.229Z,24.40
2024-02-12T07:14:57.532Z,23.80
2024-02-12T07:17:26.273Z,28.40
2024-02-12T07:19:54.863Z,32.80
2024-02-12T07:22:23.307Z,33.40
2024-02-12T07:24:55.073Z,27.30
2024-02-12T07:27:23.858Z,25.30
2024-02-12T07:29:56.721Z,23.70
2024-02-12T07:32:25.671Z,23.90
2024-02-12T07:34:54.553Z,22.30
2024-02-12T07:37:24.422Z,17.50
2024-02-12T07:39:52.930Z,13.90
2024-02-12T07:42:21.557Z,19.50
2024-02-12T07:44:50.039Z,20.50
2024-02-12T07:47:21.256Z,19.10
2024-02-12T07:49:53.314Z,18.10
2024-02-12T07:52:22.067Z,17.60
2024-02-12T07:54:50.552Z,16.90
2024-02-12T07:57:19.245Z,18.40
2024-02-12T07:59:50.877Z,16.10
2024-02-12T08:02:23.157Z,14.80
2024-02-12T08:04:52.075Z,15.40
2024-02-12T08:07:32.098Z,18.10
2024-02-12T08:10:06.081Z,15.70
2024-02-12T08:12:34.987Z,14.40
2024-02-12T08:15:04.931Z,17.40
2024-02-12T08:17:33.438Z,18.90
2024-02-12T08:20:05.913Z,17.00
2024-02-12T08:22:34.611Z,16.50
2024-02-12T08:25:04.658Z,14.70
2024-02-12T08:27:35.522Z,11.40
2024-02-12T08:30:08.166Z,11.20
2024-02-12T08:32:37.241Z,10.40
2024-02-12T08:35:09.369Z,10.00
2024-02-12T08:37:38.905Z,14.20
2024-02-12T08:40:17.320Z,14.40
2024-02-12T08:42:55.691Z,14.20
2024-02-12T08:45:25.028Z,12.80
2024-02-12T08:47:53.631Z,10.50
2024-02-12T08:50:22.996Z,11.50
2024-02-12T08:52:52.281Z,11.80
2024-02-12T08:55:20.646Z,12.80
2024-02-12T08:57:49.279Z,12.10
2024-02-12T09:00:20.438Z,12.20
2024-02-12T09:02:49.019Z,13.10
2024-02-12T09:05:17.703Z,14.10
2024-02-12T09:07:46.142Z,13.00
2024-02-12T09:10:14.996Z,10.90
2024-02-12T09:12:52.249Z,16.40
2024-02-12T09:15:24.007Z,18.10
2024-02-12T09:17:53.721Z,10.60
2024-02-12T09:20:28.289Z,7.80
2024-02-12T09:22:58.478Z,7.30
2024-02-12T09:25:26.912Z,8.50
2024-02-12T09:27:55.189Z,8.30
2024-02-12T09:30:35.044Z,7.90
2024-02-12T09:33:03.830Z,8.10
2024-02-12T09:35:34.869Z,10.30
2024-02-12T09:38:04.564Z,12.50
2024-02-12T09:40:34.653Z,11.60
2024-02-12T09:43:03.505Z,17.00
2024-02-12T09:45:31.854Z,12.90
2024-02-12T09:48:10.813Z,14.40
2024-02-12T09:50:41.841Z,13.90
2024-02-12T09:53:13.763Z,15.60
2024-02-12T09:55:42.430Z,17.50
2024-02-12T09:58:10.920Z,12.90
2024-02-12T10:00:39.403Z,10.30
2024-02-12T10:03:11.247Z,12.30
2024-02-12T10:05:44.809Z,12.00
2024-02-12T10:08:24.222Z,12.70
2024-02-12T10:10:53.509Z,10.80
2024-02-12T10:13:22.689Z,9.00
2024-02-12T10:15:54.728Z,9.40
2024-02-12T10:18:23.323Z,9.40
2024-02-12T10:20:51.816Z,9.20
2024-02-12T10:23:23.023Z,9.10
2024-02-12T10:25:53.172Z,8.00
2024-02-12T10:30:53.120Z,10.90
2024-02-12T10:33:24.239Z,11.50
2024-02-12T10:35:52.644Z,11.60
2024-02-12T10:38:22.372Z,11.30
2024-02-12T10:41:05.892Z,9.70
2024-02-12T10:43:36.015Z,9.40
2024-02-12T10:46:06.118Z,8.30
2024-02-12T10:48:37.318Z,9.00
2024-02-12T10:51:06.988Z,8.30
2024-02-12T10:53:38.727Z,7.70
2024-02-12T10:56:09.415Z,7.50
2024-02-12T10:58:40.071Z,7.10
2024-02-12T11:01:14.086Z,6.70
2024-02-12T11:03:46.980Z,7.30
2024-02-12T11:06:18.671Z,8.00
2024-02-12T11:08:51.067Z,8.80
2024-02-12T11:11:29.342Z,8.40
2024-02-12T11:14:07.377Z,7.50
2024-02-12T11:16:39.954Z,6.80
2024-02-12T11:19:20.335Z,6.10
2024-02-12T11:21:59.269Z,6.00
2024-02-12T11:24:36.982Z,6.90
2024-02-12T11:27:10.128Z,7.90
2024-02-12T11:29:48.063Z,8.20
2024-02-12T11:32:25.675Z,7.70
2024-02-12T11:34:55.996Z,7.90
2024-02-12T11:37:26.012Z,7.80
2024-02-12T11:40:01.095Z,8.40
2024-02-12T11:42:30.836Z,8.50
2024-02-12T11:45:00.708Z,8.00
2024-02-12T11:47:29.532Z,7.60
2024-02-12T11:49:58.885Z,6.00
2024-02-12T11:52:27.564Z,6.80
2024-02-12T11:54:56.062Z,6.90
2024-02-12T11:57:26.000Z,4.90
2024-02-12T11:59:58.679Z,4.60
2024-02-12T12:02:27.493Z,4.70
2024-02-12T12:04:56.165Z,4.60
2024-02-12T12:07:27.167Z,4.50
2024-02-12T12:10:05.427Z,5.30
2024-02-12T12:12:33.798Z,5.10
2024-02-12T12:15:07.448Z,5.20
2024-02-12T12:17:37.699Z,6.10
2024-02-12T12:20:15.670Z,5.00
2024-02-12T12:22:45.424Z,5.10
2024-02-12T12:25:14.090Z,4.80
2024-02-12T12:27:42.438Z,5.00
2024-02-12T12:30:19.520Z,5.90
2024-02-12T12:32:49.409Z,6.00
2024-02-12T12:35:20.026Z,6.20
2024-02-12T12:38:11.118Z,6.40
2024-02-12T12:40:40.059Z,6.90
2024-02-12T12:43:12.130Z,8.00
2024-02-12T12:45:41.536Z,10.10
2024-02-12T12:48:13.711Z,8.00
2024-02-12T12:50:58.224Z,7.20
2024-02-12T12:53:30.744Z,7.80
2024-02-12T12:55:59.968Z,7.70
2024-02-12T12:58:28.314Z,6.90
2024-02-12T13:00:56.725Z,7.30
2024-02-12T13:03:25.299Z,7.20
2024-02-12T13:05:53.970Z,8.00
2024-02-12T13:08:24.745Z,7.40
2024-02-12T13:10:53.681Z,6.90
2024-02-12T13:13:22.989Z,7.20
2024-02-12T13:15:51.900Z,7.00
2024-02-12T13:18:21.489Z,7.10
2024-02-12T13:20:52.206Z,6.90
2024-02-12T13:23:22.481Z,6.50
2024-02-12T13:25:51.692Z,6.70
2024-02-12T13:28:21.750Z,6.10
2024-02-12T13:30:50.393Z,5.60
2024-02-12T13:33:19.700Z,5.80
2024-02-12T13:35:49.582Z,5.40
2024-02-12T13:38:20.184Z,5.20
2024-02-12T13:40:52.754Z,4.80
2024-02-12T13:43:22.949Z,5.70
2024-02-12T13:45:53.347Z,4.80
2024-02-12T13:48:23.088Z,5.30
2024-02-12T13:50:54.051Z,4.90
2024-02-12T13:53:23.859Z,5.70
2024-02-12T13:55:53.197Z,6.20
2024-02-12T13:58:23.865Z,7.10
2024-02-12T14:01:09.483Z,6.70
2024-02-12T14:03:42.353Z,10.80
2024-02-12T14:06:13.579Z,9.20
2024-02-12T14:08:42.186Z,9.90
2024-02-12T14:11:10.791Z,11.10
2024-02-12T14:13:39.404Z,10.30
2024-02-12T14:16:11.463Z,10.50
2024-02-12T14:18:44.050Z,10.50
2024-02-12T14:21:13.468Z,10.90
2024-02-12T14:23:42.320Z,13.50
2024-02-12T14:26:14.413Z,14.80
2024-02-12T14:28:43.754Z,17.30
2024-02-12T14:31:15.622Z,26.70
2024-02-12T14:33:48.678Z,14.90
2024-02-12T14:36:19.352Z,8.80
2024-02-12T14:38:48.768Z,6.80
2024-02-12T14:41:17.619Z,5.60
2024-02-12T14:43:47.416Z,5.60
2024-02-12T14:46:15.966Z,6.70
2024-02-12T14:48:45.240Z,8.20
2024-02-12T14:51:13.884Z,7.60
2024-02-12T14:53:42.405Z,6.50
2024-02-12T14:56:11.151Z,7.80
2024-02-12T14:58:40.723Z,9.60
2024-02-12T15:01:11.997Z,8.70
2024-02-12T15:03:42.456Z,8.20
2024-02-12T15:06:11.676Z,7.90
2024-02-12T15:08:42.897Z,7.10
2024-02-12T15:11:12.494Z,6.20
2024-02-12T15:16:14.235Z,5.50
2024-02-12T15:18:43.391Z,4.70
2024-02-12T15:21:12.006Z,5.50
2024-02-12T15:23:40.851Z,7.80
2024-02-12T15:26:09.522Z,7.10
2024-02-12T15:28:37.904Z,7.00
2024-02-12T15:31:06.261Z,6.90
2024-02-12T15:33:34.977Z,7.20
2024-02-12T15:36:05.718Z,6.30
2024-02-12T15:38:34.563Z,6.00
2024-02-12T15:41:03.249Z,6.60
2024-02-12T15:43:31.919Z,6.50
2024-02-12T15:46:02.884Z,5.80
2024-02-12T15:48:31.611Z,6.20
2024-02-12T15:51:01.232Z,6.00
2024-02-12T15:53:30.010Z,6.40
2024-02-12T15:55:58.937Z,6.60
2024-02-12T15:58:27.534Z,6.50
2024-02-12T16:00:59.312Z,7.80
2024-02-12T16:03:27.990Z,8.30
2024-02-12T16:06:02.720Z,9.30
2024-02-12T16:08:32.179Z,8.30
2024-02-12T16:11:01.150Z,8.00
2024-02-12T16:13:31.958Z,7.30
2024-02-12T16:16:02.486Z,6.10
2024-02-12T16:18:31.058Z,3.90
2024-02-12T16:21:01.144Z,4.60
2024-02-12T16:23:30.217Z,3.50
2024-02-12T16:26:01.669Z,3.30
2024-02-12T16:28:31.015Z,3.70
2024-02-12T16:31:02.317Z,3.90
2024-02-12T16:33:30.744Z,3.90
2024-02-12T16:35:59.287Z,4.10
2024-02-12T16:38:28.138Z,4.50
2024-02-12T16:40:56.625Z,5.20
2024-02-12T16:43:25.140Z,7.20
2024-02-12T16:45:53.570Z,8.20
2024-02-12T16:48:24.512Z,7.50
2024-02-12T16:51:06.294Z,6.50
2024-02-12T16:53:49.128Z,6.40
2024-02-12T16:56:23.498Z,4.60
2024-02-12T16:58:56.857Z,4.60
2024-02-12T17:01:28.697Z,5.20
2024-02-12T17:03:57.503Z,7.50
2024-02-12T17:06:26.044Z,7.30
2024-02-12T17:09:02.182Z,6.00
2024-02-12T17:11:37.020Z,4.10
2024-02-12T17:14:05.754Z,4.70
2024-02-12T17:16:42.398Z,3.50
2024-02-12T17:19:17.404Z,3.70
2024-02-12T17:21:45.860Z,3.80
2024-02-12T17:24:14.978Z,3.00
2024-02-12T17:26:43.537Z,3.70
2024-02-12T17:29:12.105Z,3.30
2024-02-12T17:31:43.047Z,3.80
2024-02-12T17:34:36.603Z,4.00
2024-02-12T17:37:24.858Z,4.00
2024-02-12T17:39:53.184Z,3.80
2024-02-12T17:42:21.931Z,3.90
2024-02-12T17:44:50.754Z,3.50
2024-02-12T17:47:19.742Z,3.10
2024-02-12T17:49:51.951Z,3.30
2024-02-12T17:52:22.251Z,2.80
2024-02-12T17:54:58.795Z,3.40
2024-02-12T17:57:27.409Z,3.50
2024-02-12T17:59:59.987Z,3.60
2024-02-12T18:02:34.458Z,3.30
2024-02-12T18:05:07.298Z,2.60
2024-02-12T18:10:04.384Z,2.80
2024-02-12T18:12:39.275Z,3.20
2024-02-12T18:15:10.087Z,3.20
2024-02-12T18:17:38.607Z,4.30
2024-02-12T18:20:08.693Z,3.40
2024-02-12T18:22:37.121Z,3.70
2024-02-12T18:25:13.091Z,4.10
2024-02-12T18:27:42.843Z,3.70
2024-02-12T18:30:12.578Z,3.50
2024-02-12T18:32:41.907Z,3.40
2024-02-12T18:35:12.511Z,3.90
2024-02-12T18:37:44.381Z,3.40
2024-02-12T18:40:20.323Z,3.40
2024-02-12T18:42:48.808Z,3.20
2024-02-12T18:45:17.982Z,3.40
2024-02-12T18:47:49.543Z,3.60
2024-02-12T18:50:23.579Z,3.80
2024-02-12T18:52:53.053Z,3.50
2024-02-12T18:55:24.950Z,3.70
2024-02-12T18:57:58.651Z,3.60
2024-02-12T19:00:27.355Z,4.90
2024-02-12T19:02:56.122Z,4.90
2024-02-12T19:05:51.878Z,3.70
2024-02-12T19:08:23.007Z,5.20
2024-02-12T19:10:52.184Z,5.00
2024-02-12T19:13:20.792Z,4.90
2024-02-12T19:15:49.341Z,5.10
2024-02-12T19:18:18.260Z,5.50
2024-02-12T19:20:47.179Z,5.30
2024-02-12T19:23:18.946Z,5.50
2024-02-12T19:25:47.534Z,5.80
2024-02-12T19:28:16.039Z,5.80
2024-02-12T19:30:48.714Z,6.70
2024-02-12T19:33:20.621Z,5.80
2024-02-12T19:35:51.256Z,5.90
2024-02-12T19:38:20.002Z,5.80
2024-02-12T19:40:55.754Z,4.80
2024-02-12T19:43:26.922Z,5.70
2024-02-12T19:45:58.625Z,5.50
2024-02-12T19:48:27.330Z,6.20
2024-02-12T19:50:58.566Z,7.00
2024-02-12T19:53:32.111Z,8.30
2024-02-12T19:56:01.107Z,8.30
2024-02-12T19:58:29.765Z,9.60
2024-02-12T20:01:00.981Z,10.60
2024-02-12T20:03:29.539Z,10.10
2024-02-12T20:05:58.324Z,9.80
2024-02-12T20:08:27.444Z,10.40
2024-02-12T20:10:56.056Z,8.80
2024-02-12T20:13:24.793Z,9.20
2024-02-12T20:15:53.348Z,7.90
2024-02-12T20:18:24.179Z,9.50
2024-02-12T20:20:53.242Z,10.40
2024-02-12T20:23:22.145Z,9.80
2024-02-12T20:25:51.706Z,10.80
2024-02-12T20:28:40.344Z,9.20
2024-02-12T20:31:19.057Z,10.50
2024-02-12T20:34:00.399Z,10.30
2024-02-12T20:36:40.678Z,9.10
2024-02-12T20:39:10.833Z,10.30
2024-02-12T20:41:41.097Z,10.90
2024-02-12T20:44:13.162Z,10.00
2024-02-12T20:46:49.329Z,10.70
2024-02-12T20:49:17.966Z,10.40
2024-02-12T20:51:50.965Z,11.20
2024-02-12T20:54:21.976Z,11.10
2024-02-12T20:56:50.449Z,10.80
2024-02-12T20:59:19.090Z,10.20
2024-02-12T21:01:47.964Z,11.20
2024-02-12T21:04:16.829Z,8.60
2024-02-12T21:06:48.866Z,10.20
2024-02-12T21:09:19.770Z,9.30
2024-02-12T21:11:52.410Z,9.40
2024-02-12T21:14:21.211Z,8.60
2024-02-12T21:16:51.288Z,9.50
2024-02-12T21:19:21.040Z,9.90
2024-02-12T21:21:50.300Z,9.30
2024-02-12T21:24:18.675Z,9.80
2024-02-12T21:26:50.764Z,8.70
2024-02-12T21:29:20.175Z,8.70
2024-02-12T21:31:51.358Z,9.20
2024-02-12T21:34:20.851Z,8.50
2024-02-12T21:36:49.471Z,8.20
2024-02-12T21:39:32.751Z,8.70
2024-02-12T21:42:09.494Z,8.50
2024-02-12T21:44:38.519Z,8.10
2024-02-12T21:47:07.819Z,8.30
2024-02-12T21:49:36.493Z,8.60
2024-02-12T21:52:08.270Z,8.40
2024-02-12T21:54:36.711Z,8.60
2024-02-12T21:57:05.339Z,8.00
2024-02-12T21:59:38.187Z,7.70
2024-02-12T22:02:09.224Z,7.80
2024-02-12T22:04:40.413Z,8.20
2024-02-12T22:07:09.102Z,7.60
2024-02-12T22:09:39.904Z,8.60
2024-02-12T22:12:09.546Z,8.40
2024-02-12T22:14:38.936Z,8.60
2024-02-12T22:17:07.978Z,6.40
2024-02-12T22:19:36.493Z,6.60
2024-02-12T22:22:05.164Z,7.20
2024-02-12T22:24:33.453Z,7.10
2024-02-12T22:27:02.243Z,7.40
2024-02-12T22:29:30.767Z,7.60
2024-02-12T22:31:59.545Z,7.30
2024-02-12T22:34:28.584Z,7.20
2024-02-12T22:36:57.320Z,7.20
2024-02-12T22:39:25.636Z,6.60
2024-02-12T22:41:54.425Z,5.30
2024-02-12T22:44:23.696Z,6.10
2024-02-12T22:46:55.386Z,6.30
2024-02-12T22:49:26.454Z,6.50
2024-02-12T22:51:55.491Z,5.70
2024-02-12T22:54:25.009Z,6.50
2024-02-12T22:56:53.571Z,6.90
2024-02-12T22:59:22.108Z,6.60
2024-02-12T23:01:50.522Z,6.10
2024-02-12T23:04:21.312Z,6.70
2024-02-12T23:06:49.693Z,5.30
2024-02-12T23:09:18.587Z,7.20
2024-02-12T23:11:52.500Z,5.90
2024-02-12T23:14:21.391Z,7.10
2024-02-12T23:16:55.514Z,6.30
2024-02-12T23:19:24.376Z,7.20
2024-02-12T23:21:55.000Z,6.90
2024-02-12T23:24:24.376Z,6.10
2024-02-12T23:26:53.008Z,6.30
2024-02-12T23:29:24.400Z,6.50
2024-02-12T23:32:18.559Z,6.60
2024-02-12T23:34:56.896Z,6.80
2024-02-12T23:37:41.724Z,5.70
2024-02-12T23:41:03.652Z,7.30
2024-02-12T23:44:08.204Z,5.40
2024-02-12T23:46:41.618Z,5.80
2024-02-12T23:49:10.431Z,5.10
2024-02-12T23:51:38.905Z,5.40
2024-02-12T23:54:08.364Z,5.10
2024-02-12T23:56:39.076Z,5.30
2024-02-12T23:59:08.533Z,5.00
